Time;durP1;ratioP1;P1;durP2;ratioP2;P2;SDS_P1;SDS_P2;PMS_P1;PMS_P2;Temp;Humidity;BMP_temperature;BMP_pressure;BME280_temperature;BME280_humidity;BME280_pressure;Samples;Min_cycle;Max_cycle;Signal;HPM_P1;HPM_P2
2023/03/29 00:04:26;;;;;;;29.70;11.30;;;;;;;;;;105945;1274;22569;-81
2023/03/29 00:07:03;;;;;;;25.20;10.40;;;;;;;;;;105964;1293;22543;-80
2023/03/29 00:09:47;;;;;;;31.20;10.70;;;;;;;;;;106171;1290;22574;-82
2023/03/29 00:12:34;;;;;;;27.20;10.40;;;;;;;;;;106134;1290;24372;-80
2023/03/29 00:15:45;;;;;;;31.60;10.30;;;;;;;;;;106379;1284;25318;-82
2023/03/29 00:18:55;;;;;;;30.10;10.90;;;;;;;;;;106634;1284;22615;-81
2023/03/29 00:21:24;;;;;;;31.80;11.20;;;;;;;;;;106921;1276;24189;-80
2023/03/29 00:25:08;;;;;;;29.90;11.00;;;;;;;;;;107158;1259;24202;-82
2023/03/29 00:28:13;;;;;;;;;;;;;;;;;;;;;
2023/03/29 00:41:45;;;;;;;;;;;;;;;;;;;;;
2023/03/29 00:48:47;;;;;;;27.90;11.00;;;;;;;;;;105801;1293;24265;-80
2023/03/29 00:51:40;;;;;;;32.50;11.70;;;;;;;;;;105904;1293;22670;-83
2023/03/29 00:54:36;;;;;;;27.70;11.80;;;;;;;;;;105895;1274;25315;-81
2023/03/29 00:57:55;;;;;;;;;;;;;;;;;;;;;
2023/03/29 01:04:45;;;;;;;;;;;;;;;;;;;;;
2023/03/29 01:12:02;;;;;;;25.30;9.20;;;;;;;;;;105944;1294;22661;-80
2023/03/29 01:14:52;;;;;;;19.70;8.20;;;;;;;;;;108739;1270;22432;-77
2023/03/29 01:17:25;;;;;;;23.20;8.90;;;;;;;;;;109022;1293;22191;-77
2023/03/29 01:19:58;;;;;;;18.60;7.20;;;;;;;;;;109190;1294;22078;-78
2023/03/29 01:23:00;;;;;;;21.80;7.50;;;;;;;;;;109551;1289;22225;-78
2023/03/29 01:32:35;;;;;;;16.60;5.90;;;;;;;;;;109196;1294;21923;-79
2023/03/29 01:35:27;;;;;;;18.80;7.20;;;;;;;;;;109185;1270;22161;-78
2023/03/29 01:38:09;;;;;;;20.00;7.90;;;;;;;;;;109298;1293;22216;-78
2023/03/29 01:40:45;;;;;;;21.90;8.10;;;;;;;;;;109339;1293;22823;-78
2023/03/29 01:43:20;;;;;;;20.20;7.70;;;;;;;;;;109150;1293;22158;-77
2023/03/29 01:45:59;;;;;;;19.90;8.20;;;;;;;;;;109526;1265;22205;-77
2023/03/29 01:48:45;;;;;;;17.40;6.70;;;;;;;;;;109767;1287;23062;-77
2023/03/29 01:51:15;;;;;;;17.30;6.60;;;;;;;;;;109928;1282;22367;-77
2023/03/29 01:53:47;;;;;;;19.80;6.00;;;;;;;;;;110019;1282;22044;-78
2023/03/29 02:03:26;;;;;;;10.80;3.30;;;;;;;;;;109580;1290;22218;-77
2023/03/29 02:06:00;;;;;;;12.60;3.10;;;;;;;;;;109850;1262;22240;-77
2023/03/29 02:08:28;;;;;;;11.50;3.60;;;;;;;;;;110065;1282;22134;-77
2023/03/29 02:10:57;;;;;;;8.70;3.10;;;;;;;;;;109990;1282;22205;-77
2023/03/29 02:13:24;;;;;;;8.80;2.90;;;;;;;;;;110004;1282;22197;-79
2023/03/29 02:15:51;;;;;;;8.40;2.10;;;;;;;;;;109993;1259;22184;-77
2023/03/29 02:18:21;;;;;;;7.80;2.20;;;;;;;;;;110071;1282;22215;-77
2023/03/29 02:20:52;;;;;;;8.70;2.60;;;;;;;;;;110055;1282;22164;-77
2023/03/29 02:23:32;;;;;;;9.20;2.70;;;;;;;;;;110021;1283;22340;-77
2023/03/29 02:26:05;;;;;;;9.80;2.90;;;;;;;;;;110032;1259;22161;-77
2023/03/29 02:28:33;;;;;;;10.00;2.40;;;;;;;;;;109913;1283;22180;-77
2023/03/29 02:31:03;;;;;;;8.00;2.60;;;;;;;;;;109982;1283;22273;-77
2023/03/29 02:33:40;;;;;;;8.30;2.50;;;;;;;;;;110020;1283;22464;-77
2023/03/29 02:36:49;;;;;;;;;;;;;;;;;;;;;
2023/03/29 02:44:04;;;;;;;11.80;4.30;;;;;;;;;;110019;1282;22177;-77
2023/03/29 02:46:49;;;;;;;9.90;3.10;;;;;;;;;;110000;1259;22176;-78
2023/03/29 02:49:15;;;;;;;16.70;6.40;;;;;;;;;;110026;1283;22007;-79
2023/03/29 02:51:43;;;;;;;17.70;6.10;;;;;;;;;;109969;1283;22894;-79
2023/03/29 02:54:18;;;;;;;18.10;6.20;;;;;;;;;;110014;1282;22140;-77
2023/03/29 02:56:49;;;;;;;16.50;5.40;;;;;;;;;;109966;1259;22273;-78
2023/03/29 03:13:24;;;;;;;19.00;6.40;;;;;;;;;;104007;1292;545878;-78
2023/03/29 03:16:21;;;;;;;17.20;5.40;;;;;;;;;;105770;1272;22535;-78
2023/03/29 03:19:02;;;;;;;18.00;4.90;;;;;;;;;;105789;1294;24272;-82
2023/03/29 03:25:41;;;;;;;18.40;5.50;;;;;;;;;;101641;1299;5092083;-79
2023/03/29 03:28:38;;;;;;;16.70;5.40;;;;;;;;;;108784;1297;23103;-77
2023/03/29 03:31:09;;;;;;;21.80;6.30;;;;;;;;;;108695;1297;22918;-77
2023/03/29 03:34:07;;;;;;;13.80;4.50;;;;;;;;;;108623;1286;22184;-77
2023/03/29 03:36:45;;;;;;;10.50;2.90;;;;;;;;;;108660;1299;22157;-77
2023/03/29 03:39:35;;;;;;;11.70;3.10;;;;;;;;;;109589;1290;22202;-77
2023/03/29 03:42:07;;;;;;;12.40;3.10;;;;;;;;;;109519;1265;22438;-77
2023/03/29 03:44:38;;;;;;;9.90;2.80;;;;;;;;;;109609;1289;22039;-77
2023/03/29 03:47:32;;;;;;;;;;;;;;;;;;;;;
2023/03/29 03:50:26;;;;;;;9.90;2.40;;;;;;;;;;109581;1289;22286;-78
2023/03/29 03:53:13;;;;;;;7.00;2.00;;;;;;;;;;109829;1260;22230;-78
2023/03/29 03:56:13;;;;;;;9.90;2.50;;;;;;;;;;110016;1282;22133;-79
2023/03/29 03:59:35;;;;;;;12.40;2.20;;;;;;;;;;109847;1282;22321;-78
2023/03/29 04:02:12;;;;;;;12.10;2.30;;;;;;;;;;110105;1277;22094;-78
2023/03/29 04:04:49;;;;;;;;;;;;;;;;;;;;;
2023/03/29 04:07:36;;;;;;;7.10;1.90;;;;;;;;;;110484;1276;22300;-78
2023/03/29 04:10:27;;;;;;;8.70;2.30;;;;;;;;;;110543;1276;22410;-77
2023/03/29 04:13:55;;;;;;;11.80;2.30;;;;;;;;;;110394;1259;22211;-77
2023/03/29 04:16:31;;;;;;;6.90;1.80;;;;;;;;;;110283;1277;23021;-80
2023/03/29 04:19:05;;;;;;;10.50;1.90;;;;;;;;;;110292;1277;22731;-78
2023/03/29 04:21:33;;;;;;;9.80;2.30;;;;;;;;;;110225;1278;22847;-79
2023/03/29 04:24:03;;;;;;;7.20;1.70;;;;;;;;;;110334;1256;22137;-78
2023/03/29 04:26:33;;;;;;;9.30;2.30;;;;;;;;;;110235;1277;22122;-78
2023/03/29 04:29:10;;;;;;;11.10;2.40;;;;;;;;;;110435;1270;22117;-78
2023/03/29 04:31:48;;;;;;;10.10;2.30;;;;;;;;;;110204;1277;22392;-78
2023/03/29 04:34:41;;;;;;;7.60;2.40;;;;;;;;;;110240;1260;22061;-78
2023/03/29 04:37:12;;;;;;;11.30;2.50;;;;;;;;;;110288;1278;22177;-77
2023/03/29 04:39:55;;;;;;;;;;;;;;;;;;;;;
2023/03/29 04:43:14;;;;;;;10.80;3.20;;;;;;;;;;109984;1282;22549;-78
2023/03/29 04:45:51;;;;;;;13.50;4.10;;;;;;;;;;110215;1267;23013;-78
2023/03/29 04:48:59;;;;;;;15.00;4.10;;;;;;;;;;109845;1282;22942;-78
2023/03/29 04:51:37;;;;;;;47.00;12.90;;;;;;;;;;109965;1282;22147;-78
2023/03/29 05:05:14;;;;;;;14.20;4.10;;;;;;;;;;109502;1274;22924;-78
2023/03/29 05:07:53;;;;;;;12.60;3.50;;;;;;;;;;109415;1292;22882;-78
2023/03/29 05:10:24;;;;;;;11.40;3.40;;;;;;;;;;109229;1292;22212;-78
2023/03/29 05:12:54;;;;;;;10.20;3.00;;;;;;;;;;109417;1292;22151;-78
2023/03/29 05:26:27;;;;;;;15.80;4.80;;;;;;;;;;110439;1263;22995;-78
2023/03/29 05:28:57;;;;;;;14.90;4.50;;;;;;;;;;109936;1282;22849;-79
2023/03/29 05:31:46;;;;;;;;;;;;;;;;;;;;;
2023/03/29 05:34:12;;;;;;;14.30;3.70;;;;;;;;;;109996;1282;21993;-79
2023/03/29 05:44:07;;;;;;;16.90;5.30;;;;;;;;;;109653;1290;22254;-79
2023/03/29 05:46:42;;;;;;;11.90;3.70;;;;;;;;;;109771;1269;22638;-80
2023/03/29 05:49:20;;;;;;;14.00;4.20;;;;;;;;;;109589;1290;22945;-79
2023/03/29 05:52:32;;;;;;;;;;;;;;;;;;;;;
2023/03/29 05:55:10;;;;;;;12.10;3.90;;;;;;;;;;109537;1267;22187;-81
2023/03/29 05:57:43;;;;;;;13.70;3.20;;;;;;;;;;109444;1289;23086;-81
2023/03/29 06:00:32;;;;;;;;;;;;;;;;;;;;;
2023/03/29 06:03:15;;;;;;;18.10;5.80;;;;;;;;;;109590;1289;22149;-81
2023/03/29 06:05:47;;;;;;;18.70;6.20;;;;;;;;;;109492;1270;22051;-81
2023/03/29 06:15:25;;;;;;;11.80;3.90;;;;;;;;;;108980;1271;22933;-80
2023/03/29 06:17:59;;;;;;;12.80;3.90;;;;;;;;;;109422;1288;22135;-81
2023/03/29 06:20:30;;;;;;;14.40;4.20;;;;;;;;;;109659;1289;22177;-80
2023/03/29 06:23:22;;;;;;;12.40;3.80;;;;;;;;;;109643;1289;22175;-81
2023/03/29 06:26:08;;;;;;;;;;;;;;;;;;;;;
2023/03/29 06:28:55;;;;;;;25.70;8.90;;;;;;;;;;109659;1289;22780;-81
2023/03/29 06:31:24;;;;;;;25.10;8.40;;;;;;;;;;109671;1289;22224;-81
2023/03/29 06:37:35;;;;;;;18.40;6.70;;;;;;;;;;109298;1273;22174;-80
2023/03/29 06:40:36;;;;;;;12.80;4.80;;;;;;;;;;109043;1293;22157;-80
2023/03/29 06:43:07;;;;;;;12.30;4.00;;;;;;;;;;109323;1293;22264;-80
2023/03/29 06:45:57;;;;;;;12.50;4.10;;;;;;;;;;109097;1270;22313;-80
2023/03/29 06:48:34;;;;;;;12.20;3.80;;;;;;;;;;109327;1289;22885;-79
2023/03/29 06:51:01;;;;;;;12.20;4.70;;;;;;;;;;109607;1288;22167;-79
2023/03/29 06:53:39;;;;;;;19.50;5.40;;;;;;;;;;109630;1288;22222;-79
2023/03/29 06:56:30;;;;;;;15.50;4.60;;;;;;;;;;109657;1265;22225;-79
2023/03/29 06:59:22;;;;;;;12.00;4.10;;;;;;;;;;109622;1288;22037;-78
2023/03/29 07:01:56;;;;;;;13.80;4.50;;;;;;;;;;109647;1288;22045;-78
2023/03/29 07:04:41;;;;;;;11.30;4.90;;;;;;;;;;109647;1288;22651;-77
2023/03/29 07:07:18;;;;;;;11.30;4.40;;;;;;;;;;109672;1269;22259;-77
2023/03/29 07:09:52;;;;;;;11.90;4.10;;;;;;;;;;109649;1288;22165;-78
2023/03/29 07:12:39;;;;;;;11.50;4.20;;;;;;;;;;109531;1288;22152;-77
2023/03/29 07:15:07;;;;;;;13.70;4.80;;;;;;;;;;109962;1282;22152;-77
2023/03/29 07:17:56;;;;;;;14.60;4.40;;;;;;;;;;110293;1261;22197;-78
2023/03/29 07:21:02;;;;;;;;;;;;;;;;;;;;;
2023/03/29 07:28:11;;;;;;;12.50;4.50;;;;;;;;;;109523;1272;22180;-78
2023/03/29 07:30:44;;;;;;;12.40;4.30;;;;;;;;;;109551;1291;22300;-77
2023/03/29 07:33:17;;;;;;;12.40;4.90;;;;;;;;;;109449;1291;22306;-78
2023/03/29 07:35:53;;;;;;;10.90;5.10;;;;;;;;;;109449;1291;22163;-78
2023/03/29 07:38:26;;;;;;;12.40;4.10;;;;;;;;;;109617;1268;22328;-78
2023/03/29 07:41:04;;;;;;;15.50;5.50;;;;;;;;;;109568;1291;22162;-78
2023/03/29 07:44:08;;;;;;;15.10;4.90;;;;;;;;;;109407;1291;22178;-78
2023/03/29 07:46:35;;;;;;;14.70;4.90;;;;;;;;;;109565;1291;22299;-77
2023/03/29 07:49:04;;;;;;;11.40;4.10;;;;;;;;;;109490;1271;22367;-79
2023/03/29 07:51:31;;;;;;;13.30;4.50;;;;;;;;;;109561;1291;22390;-78
2023/03/29 07:54:04;;;;;;;11.20;4.60;;;;;;;;;;109628;1288;23031;-77
2023/03/29 07:56:49;;;;;;;13.10;5.50;;;;;;;;;;109677;1287;22169;-78
2023/03/29 07:59:31;;;;;;;13.10;5.40;;;;;;;;;;109798;1267;22033;-77
2023/03/29 08:02:23;;;;;;;13.60;5.20;;;;;;;;;;109997;1282;22123;-78
2023/03/29 08:04:52;;;;;;;12.90;5.00;;;;;;;;;;109916;1282;22163;-78
2023/03/29 08:07:54;;;;;;;13.10;4.50;;;;;;;;;;110032;1259;22111;-78
2023/03/29 08:10:48;;;;;;;15.10;5.50;;;;;;;;;;110004;1282;22126;-79
2023/03/29 08:13:24;;;;;;;16.00;6.40;;;;;;;;;;110058;1282;22875;-78
2023/03/29 08:16:10;;;;;;;12.10;4.70;;;;;;;;;;110033;1282;22219;-78
2023/03/29 08:18:42;;;;;;;10.80;4.20;;;;;;;;;;110112;1262;22118;-77
2023/03/29 08:21:09;;;;;;;14.00;3.80;;;;;;;;;;110029;1282;22163;-76
2023/03/29 08:23:36;;;;;;;12.20;3.50;;;;;;;;;;110112;1280;23106;-78
2023/03/29 08:26:14;;;;;;;9.60;3.50;;;;;;;;;;110048;1280;22034;-78
2023/03/29 08:28:42;;;;;;;10.60;3.00;;;;;;;;;;110196;1261;22109;-78
2023/03/29 08:31:10;;;;;;;12.40;3.60;;;;;;;;;;110092;1280;22108;-77
2023/03/29 08:33:41;;;;;;;13.70;4.10;;;;;;;;;;110144;1280;22157;-76
2023/03/29 08:36:26;;;;;;;11.90;3.90;;;;;;;;;;110126;1280;22063;-79
2023/03/29 08:38:56;;;;;;;13.80;4.50;;;;;;;;;;110099;1259;22163;-78
2023/03/29 08:41:41;;;;;;;12.50;4.00;;;;;;;;;;110045;1280;23024;-77
2023/03/29 08:44:19;;;;;;;10.50;3.60;;;;;;;;;;110120;1280;22076;-77
2023/03/29 08:47:14;;;;;;;11.50;3.90;;;;;;;;;;110144;1280;22167;-77
2023/03/29 08:49:46;;;;;;;17.60;4.80;;;;;;;;;;110147;1262;22111;-76
2023/03/29 08:52:18;;;;;;;13.90;4.60;;;;;;;;;;110104;1280;22158;-77
2023/03/29 08:54:50;;;;;;;12.40;4.20;;;;;;;;;;110054;1280;22196;-77
2023/03/29 08:57:17;;;;;;;13.60;3.50;;;;;;;;;;110107;1280;22184;-76
2023/03/29 08:59:52;;;;;;;11.50;3.20;;;;;;;;;;110170;1262;22290;-77
2023/03/29 09:02:22;;;;;;;9.30;2.90;;;;;;;;;;110158;1280;22230;-76
2023/03/29 09:05:11;;;;;;;8.40;2.60;;;;;;;;;;110057;1280;22342;-79
2023/03/29 09:07:41;;;;;;;9.30;2.80;;;;;;;;;;110099;1280;22123;-77
2023/03/29 09:10:13;;;;;;;12.70;3.90;;;;;;;;;;110192;1259;21996;-77
2023/03/29 09:13:00;;;;;;;10.10;3.20;;;;;;;;;;110134;1280;22106;-78
2023/03/29 09:15:31;;;;;;;11.30;3.20;;;;;;;;;;110127;1280;22206;-78
2023/03/29 09:18:23;;;;;;;13.30;4.00;;;;;;;;;;110045;1280;22112;-77
2023/03/29 09:20:57;;;;;;;9.10;2.90;;;;;;;;;;110102;1263;22099;-77
2023/03/29 09:23:35;;;;;;;11.00;3.20;;;;;;;;;;110081;1279;22324;-77
2023/03/29 09:26:54;;;;;;;13.90;3.10;;;;;;;;;;110065;1269;22180;-76
2023/03/29 09:30:10;;;;;;;11.80;3.40;;;;;;;;;;110064;1259;22125;-78
2023/03/29 09:32:58;;;;;;;11.70;3.40;;;;;;;;;;110072;1281;22080;-78
2023/03/29 09:35:43;;;;;;;11.80;3.00;;;;;;;;;;109971;1281;22123;-78
2023/03/29 09:38:12;;;;;;;11.10;3.60;;;;;;;;;;110039;1281;22000;-78
2023/03/29 09:41:00;;;;;;;11.50;3.10;;;;;;;;;;110147;1261;22328;-77
2023/03/29 09:43:40;;;;;;;12.60;3.30;;;;;;;;;;109917;1281;22644;-77
2023/03/29 09:46:24;;;;;;;11.80;2.90;;;;;;;;;;109982;1281;22828;-76
2023/03/29 09:48:53;;;;;;;12.00;3.00;;;;;;;;;;109996;1281;22075;-76
2023/03/29 09:51:23;;;;;;;13.50;3.10;;;;;;;;;;110278;1265;22375;-78
2023/03/29 09:53:51;;;;;;;9.50;2.70;;;;;;;;;;110083;1277;22218;-76
2023/03/29 09:56:38;;;;;;;16.50;4.60;;;;;;;;;;110088;1281;22104;-77
2023/03/29 09:59:12;;;;;;;11.00;3.10;;;;;;;;;;109983;1281;22122;-77
2023/03/29 10:01:40;;;;;;;12.80;3.40;;;;;;;;;;110078;1264;22750;-78
2023/03/29 10:04:10;;;;;;;17.80;4.60;;;;;;;;;;110039;1281;22144;-77
2023/03/29 10:06:43;;;;;;;22.80;6.50;;;;;;;;;;109968;1281;22964;-77
2023/03/29 10:09:31;;;;;;;22.30;5.10;;;;;;;;;;109998;1281;23090;-77
2023/03/29 10:12:07;;;;;;;17.30;5.40;;;;;;;;;;110060;1263;22116;-76
2023/03/29 10:14:35;;;;;;;11.90;2.50;;;;;;;;;;110014;1281;22108;-77
2023/03/29 10:17:04;;;;;;;10.10;2.90;;;;;;;;;;109995;1281;22096;-78
2023/03/29 10:19:36;;;;;;;12.20;2.80;;;;;;;;;;110034;1281;22803;-77
2023/03/29 10:22:15;;;;;;;10.40;2.70;;;;;;;;;;110071;1259;22848;-75
2023/03/29 10:24:50;;;;;;;11.60;3.10;;;;;;;;;;110058;1282;22160;-77
2023/03/29 10:27:21;;;;;;;7.90;2.70;;;;;;;;;;110055;1282;22124;-78
2023/03/29 10:29:51;;;;;;;8.00;2.70;;;;;;;;;;110070;1280;22969;-78
2023/03/29 10:32:28;;;;;;;8.80;2.80;;;;;;;;;;110425;1259;22127;-75
2023/03/29 10:35:02;;;;;;;12.70;3.10;;;;;;;;;;110041;1280;22151;-77
2023/03/29 10:37:31;;;;;;;11.30;3.00;;;;;;;;;;110007;1280;22034;-77
2023/03/29 10:40:00;;;;;;;8.30;2.60;;;;;;;;;;110146;1280;22777;-78
2023/03/29 10:42:29;;;;;;;9.00;2.70;;;;;;;;;;110103;1263;22182;-78
2023/03/29 10:45:08;;;;;;;9.70;3.00;;;;;;;;;;110104;1280;22092;-80
2023/03/29 10:47:48;;;;;;;;;;;;;;;;;;;;;
2023/03/29 10:51:17;;;;;;;9.60;3.30;;;;;;;;;;109841;1267;22372;-78
2023/03/29 10:53:47;;;;;;;12.90;3.60;;;;;;;;;;109795;1286;22905;-77
2023/03/29 10:56:23;;;;;;;9.80;3.40;;;;;;;;;;109755;1286;22183;-79
2023/03/29 10:59:03;;;;;;;9.40;3.30;;;;;;;;;;109854;1286;22159;-78
2023/03/29 11:01:44;;;;;;;8.60;3.20;;;;;;;;;;109850;1265;22224;-79
2023/03/29 11:04:21;;;;;;;9.70;3.10;;;;;;;;;;109869;1286;21988;-79
2023/03/29 11:07:13;;;;;;;9.40;3.10;;;;;;;;;;109853;1286;21700;-80
2023/03/29 11:09:47;;;;;;;10.80;3.50;;;;;;;;;;109830;1286;22194;-79
2023/03/29 11:12:25;;;;;;;10.70;3.70;;;;;;;;;;109875;1265;22961;-79
2023/03/29 11:15:14;;;;;;;8.60;2.80;;;;;;;;;;109764;1286;22224;-79
2023/03/29 11:18:05;;;;;;;10.40;3.40;;;;;;;;;;109880;1286;22182;-79
2023/03/29 11:27:50;;;;;;;10.60;3.60;;;;;;;;;;103802;1304;544961;-82
2023/03/29 11:30:30;;;;;;;11.40;3.10;;;;;;;;;;106632;1279;22530;-80
2023/03/29 11:32:59;;;;;;;12.80;3.80;;;;;;;;;;106502;1279;22564;-78
2023/03/29 11:35:45;;;;;;;8.90;2.90;;;;;;;;;;106942;1274;22557;-78
2023/03/29 11:38:24;;;;;;;10.50;2.90;;;;;;;;;;106802;1260;24197;-83
2023/03/29 11:41:24;;;;;;;13.70;3.60;;;;;;;;;;103251;1270;5147315;-78
2023/03/29 11:43:55;;;;;;;10.20;2.80;;;;;;;;;;106904;1274;22549;-82
2023/03/29 11:46:36;;;;;;;11.30;3.20;;;;;;;;;;106779;1275;25288;-81
2023/03/29 11:49:15;;;;;;;10.80;3.20;;;;;;;;;;106817;1266;22498;-82
2023/03/29 11:51:49;;;;;;;12.50;3.00;;;;;;;;;;106989;1275;22638;-77
2023/03/29 11:54:38;;;;;;;8.80;2.70;;;;;;;;;;106544;1272;25517;-86
2023/03/29 11:57:17;;;;;;;11.60;2.80;;;;;;;;;;107276;1260;27355;-81
2023/03/29 11:59:51;;;;;;;7.70;2.60;;;;;;;;;;106713;1272;22716;-82
2023/03/29 12:02:38;;;;;;;9.40;2.80;;;;;;;;;;107196;1270;22758;-77
2023/03/29 12:05:17;;;;;;;10.00;2.30;;;;;;;;;;106906;1270;22531;-78
2023/03/29 12:07:47;;;;;;;7.10;2.20;;;;;;;;;;106807;1260;25261;-80
2023/03/29 12:10:22;;;;;;;8.20;2.60;;;;;;;;;;106756;1273;24381;-83
2023/03/29 12:13:10;;;;;;;11.10;2.90;;;;;;;;;;106801;1272;25440;-80
2023/03/29 12:15:43;;;;;;;9.00;2.80;;;;;;;;;;106853;1270;22716;-78
2023/03/29 12:18:42;;;;;;;9.30;2.50;;;;;;;;;;106862;1256;25341;-79
2023/03/29 12:21:14;;;;;;;8.60;2.00;;;;;;;;;;106883;1270;25436;-77
2023/03/29 12:24:01;;;;;;;10.40;2.40;;;;;;;;;;106900;1275;25297;-81
2023/03/29 12:26:42;;;;;;;8.70;2.80;;;;;;;;;;106838;1275;25463;-77
2023/03/29 12:29:15;;;;;;;13.40;3.60;;;;;;;;;;106814;1268;22737;-76
2023/03/29 12:31:48;;;;;;;8.80;3.50;;;;;;;;;;106818;1275;24934;-84
2023/03/29 12:34:32;;;;;;;14.00;2.70;;;;;;;;;;106720;1273;22531;-80
2023/03/29 12:37:19;;;;;;;;;;;;;;;;;;;;;
2023/03/29 12:40:13;;;;;;;8.90;2.60;;;;;;;;;;106910;1261;25262;-83
2023/03/29 12:43:03;;;;;;;8.40;2.40;;;;;;;;;;106825;1279;22718;-77
2023/03/29 12:46:12;;;;;;;14.90;2.80;;;;;;;;;;106812;1278;24265;-79
2023/03/29 12:49:14;;;;;;;12.10;2.60;;;;;;;;;;106779;1256;22684;-81
2023/03/29 12:51:41;;;;;;;7.40;2.20;;;;;;;;;;106866;1275;22914;-80
2023/03/29 12:54:18;;;;;;;15.00;3.80;;;;;;;;;;106820;1270;22531;-80
2023/03/29 12:56:56;;;;;;;10.30;3.10;;;;;;;;;;106770;1278;25363;-84
2023/03/29 12:59:43;;;;;;;11.40;3.20;;;;;;;;;;106687;1278;22527;-82
2023/03/29 13:02:13;;;;;;;8.60;2.30;;;;;;;;;;106667;1278;22549;-78
2023/03/29 13:04:51;;;;;;;9.80;3.20;;;;;;;;;;106862;1278;22542;-79
2023/03/29 13:07:21;;;;;;;11.70;3.20;;;;;;;;;;106866;1278;22527;-79
2023/03/29 13:09:51;;;;;;;13.50;4.40;;;;;;;;;;106804;1259;23124;-77
2023/03/29 13:12:25;;;;;;;20.50;3.40;;;;;;;;;;106810;1278;22536;-80
2023/03/29 13:14:56;;;;;;;12.00;3.10;;;;;;;;;;106769;1278;22790;-77
2023/03/29 13:17:31;;;;;;;11.60;3.50;;;;;;;;;;106840;1278;26481;-83
2023/03/29 13:20:09;;;;;;;15.50;3.70;;;;;;;;;;106581;1262;25491;-81
2023/03/29 13:22:39;;;;;;;11.50;3.20;;;;;;;;;;106630;1278;25438;-85
2023/03/29 13:25:24;;;;;;;11.70;3.10;;;;;;;;;;106730;1278;24261;-79
2023/03/29 13:27:57;;;;;;;14.00;3.20;;;;;;;;;;106828;1278;24252;-82
2023/03/29 13:30:27;;;;;;;14.10;3.40;;;;;;;;;;106766;1256;22530;-85
2023/03/29 13:33:38;;;;;;;10.90;3.90;;;;;;;;;;106736;1278;22526;-76
2023/03/29 13:36:09;;;;;;;12.20;3.30;;;;;;;;;;106841;1278;25293;-83
2023/03/29 13:38:53;;;;;;;13.00;3.10;;;;;;;;;;106829;1278;26496;-84
2023/03/29 13:41:28;;;;;;;11.50;3.50;;;;;;;;;;106887;1259;24170;-77
2023/03/29 13:43:56;;;;;;;17.70;5.10;;;;;;;;;;106708;1278;24222;-78
2023/03/29 13:47:23;;;;;;;16.90;4.80;;;;;;;;;;106822;1278;22526;-81
2023/03/29 13:49:52;;;;;;;11.40;3.40;;;;;;;;;;106843;1259;22746;-82
2023/03/29 13:52:30;;;;;;;12.20;3.90;;;;;;;;;;106819;1278;24249;-77
2023/03/29 13:55:18;;;;;;;19.30;5.30;;;;;;;;;;106915;1272;22578;-78
2023/03/29 13:58:12;;;;;;;13.00;4.00;;;;;;;;;;106884;1257;22526;-85
2023/03/29 14:01:06;;;;;;;12.70;3.90;;;;;;;;;;106658;1259;23930;-80
2023/03/29 14:03:44;;;;;;;15.50;4.20;;;;;;;;;;106805;1274;22495;-82
2023/03/29 14:06:20;;;;;;;13.10;4.40;;;;;;;;;;106878;1270;25366;-80
2023/03/29 14:09:02;;;;;;;17.70;5.40;;;;;;;;;;107085;1270;24371;-78
2023/03/29 14:11:42;;;;;;;16.60;5.10;;;;;;;;;;106908;1275;22537;-83
2023/03/29 14:14:09;;;;;;;13.20;5.20;;;;;;;;;;106812;1272;22536;-78
2023/03/29 14:16:42;;;;;;;17.10;5.30;;;;;;;;;;106881;1278;24195;-78
2023/03/29 14:19:48;;;;;;;14.00;5.10;;;;;;;;;;106970;1278;22897;-76
2023/03/29 14:22:17;;;;;;;11.60;4.40;;;;;;;;;;107224;1259;22652;-78
2023/03/29 14:24:52;;;;;;;13.00;4.40;;;;;;;;;;106923;1278;22526;-80
2023/03/29 14:27:31;;;;;;;10.10;3.80;;;;;;;;;;106991;1278;24295;-77
2023/03/29 14:30:40;;;;;;;12.70;5.10;;;;;;;;;;106790;1256;21774;-80
2023/03/29 14:33:13;;;;;;;10.10;4.30;;;;;;;;;;107045;1275;25360;-85
2023/03/29 14:35:46;;;;;;;13.60;5.20;;;;;;;;;;106884;1275;22558;-84
2023/03/29 14:38:13;;;;;;;13.50;4.70;;;;;;;;;;106781;1278;22539;-80
2023/03/29 14:40:45;;;;;;;14.00;4.60;;;;;;;;;;106844;1257;26497;-78
2023/03/29 14:43:16;;;;;;;11.30;4.90;;;;;;;;;;106821;1278;22584;-80
2023/03/29 14:46:04;;;;;;;14.40;4.70;;;;;;;;;;106861;1278;25285;-79
2023/03/29 14:48:45;;;;;;;17.30;5.50;;;;;;;;;;106821;1278;22536;-78
2023/03/29 14:51:12;;;;;;;13.80;5.90;;;;;;;;;;106813;1259;22526;-83
2023/03/29 14:53:40;;;;;;;15.10;5.60;;;;;;;;;;106799;1278;22527;-86
2023/03/29 14:56:24;;;;;;;13.30;5.30;;;;;;;;;;106854;1278;22522;-83
2023/03/29 14:58:55;;;;;;;12.50;5.10;;;;;;;;;;106986;1278;25370;-78
2023/03/29 15:01:48;;;;;;;15.70;5.90;;;;;;;;;;106878;1261;22564;-80
2023/03/29 15:04:37;;;;;;;13.60;5.10;;;;;;;;;;106798;1278;22650;-80
2023/03/29 15:07:13;;;;;;;11.30;4.50;;;;;;;;;;106756;1278;22547;-84
2023/03/29 15:09:44;;;;;;;12.50;5.00;;;;;;;;;;106875;1278;22770;-80
2023/03/29 15:15:06;;;;;;;12.70;4.70;;;;;;;;;;106825;1278;22542;-82
2023/03/29 15:18:39;;;;;;;16.20;5.60;;;;;;;;;;106773;1267;22527;-79
2023/03/29 15:20:50;;;;;;;19.70;5.90;;;;;;;;;;106763;1278;22860;-83
2023/03/29 15:23:42;;;;;;;17.90;5.30;;;;;;;;;;106830;1278;24217;-77
2023/03/29 15:26:26;;;;;;;13.40;5.90;;;;;;;;;;106900;1278;24270;-78
2023/03/29 15:29:01;;;;;;;15.90;6.10;;;;;;;;;;106836;1278;25374;-83
2023/03/29 15:31:40;;;;;;;16.30;5.90;;;;;;;;;;106907;1255;24200;-83
2023/03/29 15:34:10;;;;;;;15.30;5.90;;;;;;;;;;106892;1278;23072;-83
2023/03/29 15:36:52;;;;;;;13.10;5.10;;;;;;;;;;106867;1278;24314;-78
2023/03/29 15:39:30;;;;;;;17.00;5.70;;;;;;;;;;106892;1278;22537;-78
2023/03/29 15:42:00;;;;;;;16.30;7.40;;;;;;;;;;106849;1257;22640;-78
2023/03/29 15:45:35;;;;;;;13.50;5.60;;;;;;;;;;106655;1278;22585;-80
2023/03/29 15:48:05;;;;;;;;;;;;;;;;;;;;;
2023/03/29 15:50:37;;;;;;;14.10;5.70;;;;;;;;;;106838;1278;25293;-81
2023/03/29 15:53:10;;;;;;;14.40;6.30;;;;;;;;;;106968;1259;24397;-81
2023/03/29 15:56:09;;;;;;;14.30;5.80;;;;;;;;;;106838;1278;25466;-84
2023/03/29 15:58:57;;;;;;;;;;;;;;;;;;;;;
2023/03/29 16:01:46;;;;;;;14.50;5.60;;;;;;;;;;106889;1278;24358;-80
2023/03/29 16:04:26;;;;;;;16.10;5.50;;;;;;;;;;106829;1263;25343;-84
2023/03/29 16:06:54;;;;;;;14.10;5.10;;;;;;;;;;106874;1278;22550;-79
2023/03/29 16:09:24;;;;;;;13.20;5.00;;;;;;;;;;106747;1278;22532;-80
2023/03/29 16:11:59;;;;;;;14.30;6.10;;;;;;;;;;106917;1278;24226;-83
2023/03/29 16:14:30;;;;;;;15.70;6.20;;;;;;;;;;106776;1260;22999;-84
2023/03/29 16:17:07;;;;;;;13.60;5.60;;;;;;;;;;106817;1278;25477;-82
2023/03/29 16:20:05;;;;;;;11.90;4.40;;;;;;;;;;106804;1278;22656;-81
2023/03/29 16:22:54;;;;;;;11.70;4.40;;;;;;;;;;106864;1278;22540;-82
2023/03/29 16:25:23;;;;;;;12.70;5.10;;;;;;;;;;106874;1278;24235;-79
2023/03/29 16:28:14;;;;;;;14.00;5.20;;;;;;;;;;106791;1278;25359;-79
2023/03/29 16:31:04;;;;;;;15.50;5.70;;;;;;;;;;106853;1278;25313;-78
2023/03/29 16:33:31;;;;;;;15.20;5.90;;;;;;;;;;106838;1260;22522;-79
2023/03/29 16:36:01;;;;;;;17.50;5.70;;;;;;;;;;106815;1278;24235;-84
2023/03/29 16:38:30;;;;;;;15.40;5.80;;;;;;;;;;106837;1278;25342;-83
2023/03/29 16:41:15;;;;;;;20.40;6.40;;;;;;;;;;106884;1278;22534;-79
2023/03/29 16:43:47;;;;;;;17.50;5.90;;;;;;;;;;106865;1259;22483;-78
2023/03/29 16:46:27;;;;;;;19.40;7.10;;;;;;;;;;106846;1278;22733;-82
2023/03/29 16:48:56;;;;;;;16.40;6.70;;;;;;;;;;106826;1278;23922;-79
2023/03/29 16:51:51;;;;;;;;;;;;;;;;;;;;;
2023/03/29 16:54:34;;;;;;;18.60;7.00;;;;;;;;;;106465;1262;25339;-76
2023/03/29 16:57:30;;;;;;;20.20;7.40;;;;;;;;;;106514;1278;24270;-78
2023/03/29 17:00:39;;;;;;;20.10;7.30;;;;;;;;;;106689;1278;22541;-83
2023/03/29 17:03:19;;;;;;;18.20;6.60;;;;;;;;;;106849;1278;23303;-79
2023/03/29 17:06:31;;;;;;;16.40;5.80;;;;;;;;;;106427;1263;22919;-80
2023/03/29 17:09:17;;;;;;;;;;;;;;;;;;;;;
2023/03/29 17:11:44;;;;;;;20.60;7.70;;;;;;;;;;106843;1278;22486;-84
2023/03/29 17:14:40;;;;;;;18.40;7.00;;;;;;;;;;106769;1261;25287;-79
2023/03/29 17:17:10;;;;;;;24.50;7.70;;;;;;;;;;106914;1279;25336;-79
2023/03/29 17:19:40;;;;;;;14.60;6.50;;;;;;;;;;106617;1279;22527;-84
2023/03/29 17:22:58;;;;;;;16.20;5.80;;;;;;;;;;106829;1279;22543;-85
2023/03/29 17:25:22;;;;;;;13.80;5.50;;;;;;;;;;106929;1256;22527;-79
2023/03/29 17:27:50;;;;;;;13.30;5.20;;;;;;;;;;106635;1278;22531;-82
2023/03/29 17:31:02;;;;;;;;;;;;;;;;;;;;;
2023/03/29 17:33:50;;;;;;;16.70;6.20;;;;;;;;;;107079;1276;22572;-77
2023/03/29 17:37:14;;;;;;;19.90;8.40;;;;;;;;;;106996;1256;22644;-78
2023/03/29 17:39:58;;;;;;;15.60;7.10;;;;;;;;;;106887;1262;22993;-79
2023/03/29 17:43:10;;;;;;;15.40;7.70;;;;;;;;;;106723;1276;22524;-82
2023/03/29 17:46:01;;;;;;;16.70;7.80;;;;;;;;;;106578;1262;22532;-80
2023/03/29 17:48:34;;;;;;;18.70;7.50;;;;;;;;;;106602;1281;23138;-83
2023/03/29 17:51:40;;;;;;;25.20;8.40;;;;;;;;;;106469;1281;25322;-80
2023/03/29 17:54:15;;;;;;;29.80;10.50;;;;;;;;;;106662;1281;22533;-79
2023/03/29 17:57:47;;;;;;;;;;;;;;;;;;;;;
2023/03/29 18:00:43;;;;;;;21.80;8.20;;;;;;;;;;106441;1281;23010;-83